sensor_id;sensor_type;location;lat;lon;timestamp;temperature;humidity
55828;DHT22;41758;51.992;5.890;2022-08-21T00:00:35;25.60;59.70
55828;DHT22;41758;51.992;5.890;2022-08-21T00:03:07;25.60;59.50
55828;DHT22;41758;51.992;5.890;2022-08-21T00:05:48;25.60;59.10
55828;DHT22;41758;51.992;5.890;2022-08-21T00:08:19;25.60;59.00
55828;DHT22;41758;51.992;5.890;2022-08-21T00:10:52;25.60;59.70
55828;DHT22;41758;51.992;5.890;2022-08-21T00:13:24;25.60;59.70
55828;DHT22;41758;51.992;5.890;2022-08-21T00:15:50;25.60;60.10
55828;DHT22;41758;51.992;5.890;2022-08-21T00:18:18;25.60;59.70
55828;DHT22;41758;51.992;5.890;2022-08-21T00:20:53;25.60;59.40
55828;DHT22;41758;51.992;5.890;2022-08-21T00:23:30;25.60;59.50
55828;DHT22;41758;51.992;5.890;2022-08-21T00:25:56;25.60;59.90
55828;DHT22;41758;51.992;5.890;2022-08-21T00:28:22;25.50;59.80
55828;DHT22;41758;51.992;5.890;2022-08-21T00:30:47;25.60;59.60
55828;DHT22;41758;51.992;5.890;2022-08-21T00:33:13;25.60;59.50
55828;DHT22;41758;51.992;5.890;2022-08-21T00:35:41;25.50;59.70
55828;DHT22;41758;51.992;5.890;2022-08-21T00:38:08;25.50;59.60
55828;DHT22;41758;51.992;5.890;2022-08-21T00:40:48;25.50;59.60
55828;DHT22;41758;51.992;5.890;2022-08-21T00:43:17;25.50;59.60
55828;DHT22;41758;51.992;5.890;2022-08-21T00:45:43;25.50;59.70
55828;DHT22;41758;51.992;5.890;2022-08-21T00:48:10;25.50;59.60
55828;DHT22;41758;51.992;5.890;2022-08-21T00:50:42;25.40;59.30
55828;DHT22;41758;51.992;5.890;2022-08-21T00:53:10;25.40;59.20
55828;DHT22;41758;51.992;5.890;2022-08-21T00:55:37;25.40;59.30
55828;DHT22;41758;51.992;5.890;2022-08-21T00:58:05;25.40;59.70
55828;DHT22;41758;51.992;5.890;2022-08-21T01:00:35;25.40;59.80
55828;DHT22;41758;51.992;5.890;2022-08-21T01:03:07;25.40;60.00
55828;DHT22;41758;51.992;5.890;2022-08-21T01:05:33;25.50;60.10
55828;DHT22;41758;51.992;5.890;2022-08-21T01:07:59;25.40;60.20
55828;DHT22;41758;51.992;5.890;2022-08-21T01:10:25;25.40;60.20
55828;DHT22;41758;51.992;5.890;2022-08-21T01:12:55;25.40;60.00
55828;DHT22;41758;51.992;5.890;2022-08-21T01:15:32;25.40;59.50
55828;DHT22;41758;51.992;5.890;2022-08-21T01:17:58;25.30;59.50
55828;DHT22;41758;51.992;5.890;2022-08-21T01:20:25;25.30;59.90
55828;DHT22;41758;51.992;5.890;2022-08-21T01:22:51;25.30;60.10
55828;DHT22;41758;51.992;5.890;2022-08-21T01:25:17;25.40;60.30
55828;DHT22;41758;51.992;5.890;2022-08-21T01:27:45;25.30;60.30
55828;DHT22;41758;51.992;5.890;2022-08-21T01:30:23;25.30;60.50
55828;DHT22;41758;51.992;5.890;2022-08-21T01:32:53;25.30;60.40
55828;DHT22;41758;51.992;5.890;2022-08-21T01:35:20;25.30;60.60
55828;DHT22;41758;51.992;5.890;2022-08-21T01:37:47;25.30;60.80
55828;DHT22;41758;51.992;5.890;2022-08-21T01:40:14;25.30;60.80
55828;DHT22;41758;51.992;5.890;2022-08-21T01:42:44;25.30;60.80
55828;DHT22;41758;51.992;5.890;2022-08-21T01:45:10;25.30;60.90
55828;DHT22;41758;51.992;5.890;2022-08-21T01:47:36;25.30;60.80
55828;DHT22;41758;51.992;5.890;2022-08-21T01:50:05;25.30;60.60
55828;DHT22;41758;51.992;5.890;2022-08-21T01:52:33;25.20;60.20
55828;DHT22;41758;51.992;5.890;2022-08-21T01:54:59;25.20;60.30
55828;DHT22;41758;51.992;5.890;2022-08-21T01:57:24;25.20;60.20
55828;DHT22;41758;51.992;5.890;2022-08-21T01:59:50;25.20;60.30
55828;DHT22;41758;51.992;5.890;2022-08-21T02:02:16;25.20;60.50
55828;DHT22;41758;51.992;5.890;2022-08-21T02:04:42;25.20;60.70
55828;DHT22;41758;51.992;5.890;2022-08-21T02:07:07;25.20;60.60
55828;DHT22;41758;51.992;5.890;2022-08-21T02:09:33;25.20;60.80
55828;DHT22;41758;51.992;5.890;2022-08-21T02:11:59;25.20;60.80
55828;DHT22;41758;51.992;5.890;2022-08-21T02:14:25;25.20;60.90
55828;DHT22;41758;51.992;5.890;2022-08-21T02:16:50;25.20;60.90
55828;DHT22;41758;51.992;5.890;2022-08-21T02:19:16;25.10;60.90
55828;DHT22;41758;51.992;5.890;2022-08-21T02:21:42;25.10;61.00
55828;DHT22;41758;51.992;5.890;2022-08-21T02:24:09;25.10;61.00
55828;DHT22;41758;51.992;5.890;2022-08-21T02:26:35;25.10;61.00
55828;DHT22;41758;51.992;5.890;2022-08-21T02:29:01;25.10;61.00
55828;DHT22;41758;51.992;5.890;2022-08-21T02:31:26;25.10;60.90
55828;DHT22;41758;51.992;5.890;2022-08-21T02:33:52;25.10;60.80
55828;DHT22;41758;51.992;5.890;2022-08-21T02:36:18;25.10;60.40
55828;DHT22;41758;51.992;5.890;2022-08-21T02:38:44;25.10;60.30
55828;DHT22;41758;51.992;5.890;2022-08-21T02:41:18;25.10;60.30
55828;DHT22;41758;51.992;5.890;2022-08-21T02:43:44;25.10;60.00
55828;DHT22;41758;51.992;5.890;2022-08-21T02:46:13;25.00;60.20
55828;DHT22;41758;51.992;5.890;2022-08-21T02:48:42;25.10;60.30
55828;DHT22;41758;51.992;5.890;2022-08-21T02:51:14;25.10;60.40
55828;DHT22;41758;51.992;5.890;2022-08-21T02:53:41;25.10;60.40
55828;DHT22;41758;51.992;5.890;2022-08-21T02:56:10;25.00;60.70
55828;DHT22;41758;51.992;5.890;2022-08-21T02:58:40;25.00;60.70
55828;DHT22;41758;51.992;5.890;2022-08-21T03:01:07;25.00;60.80
55828;DHT22;41758;51.992;5.890;2022-08-21T03:03:38;25.00;61.00
55828;DHT22;41758;51.992;5.890;2022-08-21T03:06:13;25.00;61.00
55828;DHT22;41758;51.992;5.890;2022-08-21T03:08:40;25.00;60.50
55828;DHT22;41758;51.992;5.890;2022-08-21T03:11:05;25.00;60.90
55828;DHT22;41758;51.992;5.890;2022-08-21T03:13:31;25.00;60.90
55828;DHT22;41758;51.992;5.890;2022-08-21T03:15:57;25.00;60.90
55828;DHT22;41758;51.992;5.890;2022-08-21T03:18:23;25.00;61.00
55828;DHT22;41758;51.992;5.890;2022-08-21T03:20:49;25.00;61.10
55828;DHT22;41758;51.992;5.890;2022-08-21T03:23:16;25.00;61.00
55828;DHT22;41758;51.992;5.890;2022-08-21T03:25:43;25.00;61.00
55828;DHT22;41758;51.992;5.890;2022-08-21T03:28:12;25.00;61.00
55828;DHT22;41758;51.992;5.890;2022-08-21T03:30:39;25.00;61.00
55828;DHT22;41758;51.992;5.890;2022-08-21T03:33:05;25.00;61.00
55828;DHT22;41758;51.992;5.890;2022-08-21T03:35:30;24.90;61.00
55828;DHT22;41758;51.992;5.890;2022-08-21T03:37:56;24.90;61.10
55828;DHT22;41758;51.992;5.890;2022-08-21T03:40:23;24.90;60.90
55828;DHT22;41758;51.992;5.890;2022-08-21T03:42:50;24.90;60.90
55828;DHT22;41758;51.992;5.890;2022-08-21T03:45:17;24.90;60.90
55828;DHT22;41758;51.992;5.890;2022-08-21T03:47:54;24.90;60.90
55828;DHT22;41758;51.992;5.890;2022-08-21T03:50:22;24.90;60.80
55828;DHT22;41758;51.992;5.890;2022-08-21T03:52:48;24.90;61.20
55828;DHT22;41758;51.992;5.890;2022-08-21T03:55:14;24.90;60.90
55828;DHT22;41758;51.992;5.890;2022-08-21T03:57:39;24.90;61.00
55828;DHT22;41758;51.992;5.890;2022-08-21T04:00:05;24.90;61.00
55828;DHT22;41758;51.992;5.890;2022-08-21T04:02:34;24.90;61.00
55828;DHT22;41758;51.992;5.890;2022-08-21T04:04:59;24.90;61.10
55828;DHT22;41758;51.992;5.890;2022-08-21T04:07:25;24.90;61.00
55828;DHT22;41758;51.992;5.890;2022-08-21T04:09:51;24.90;60.90
55828;DHT22;41758;51.992;5.890;2022-08-21T04:12:16;24.90;61.00
55828;DHT22;41758;51.992;5.890;2022-08-21T04:14:42;24.90;61.10
55828;DHT22;41758;51.992;5.890;2022-08-21T04:17:08;24.90;61.20
55828;DHT22;41758;51.992;5.890;2022-08-21T04:19:33;24.90;61.40
55828;DHT22;41758;51.992;5.890;2022-08-21T04:21:59;24.90;61.30
55828;DHT22;41758;51.992;5.890;2022-08-21T04:24:25;24.80;61.50
55828;DHT22;41758;51.992;5.890;2022-08-21T04:26:50;24.90;61.30
55828;DHT22;41758;51.992;5.890;2022-08-21T04:29:16;24.80;61.20
55828;DHT22;41758;51.992;5.890;2022-08-21T04:31:41;24.80;61.10
55828;DHT22;41758;51.992;5.890;2022-08-21T04:34:09;24.80;60.80
55828;DHT22;41758;51.992;5.890;2022-08-21T04:36:34;24.80;61.00
55828;DHT22;41758;51.992;5.890;2022-08-21T04:39:02;24.80;61.00
55828;DHT22;41758;51.992;5.890;2022-08-21T04:41:28;24.80;61.10
55828;DHT22;41758;51.992;5.890;2022-08-21T04:43:54;24.80;61.30
55828;DHT22;41758;51.992;5.890;2022-08-21T04:46:21;24.80;61.00
55828;DHT22;41758;51.992;5.890;2022-08-21T04:48:48;24.80;60.80
55828;DHT22;41758;51.992;5.890;2022-08-21T04:51:25;24.80;60.80
55828;DHT22;41758;51.992;5.890;2022-08-21T04:54:02;24.80;60.40
55828;DHT22;41758;51.992;5.890;2022-08-21T04:56:35;24.80;60.50
55828;DHT22;41758;51.992;5.890;2022-08-21T04:59:07;24.80;61.00
55828;DHT22;41758;51.992;5.890;2022-08-21T05:01:37;24.80;61.00
55828;DHT22;41758;51.992;5.890;2022-08-21T05:04:06;24.80;61.20
55828;DHT22;41758;51.992;5.890;2022-08-21T05:06:36;24.70;61.10
55828;DHT22;41758;51.992;5.890;2022-08-21T05:09:03;24.80;61.10
55828;DHT22;41758;51.992;5.890;2022-08-21T05:11:30;24.70;61.00
55828;DHT22;41758;51.992;5.890;2022-08-21T05:13:56;24.70;60.60
55828;DHT22;41758;51.992;5.890;2022-08-21T05:16:22;24.70;60.60
55828;DHT22;41758;51.992;5.890;2022-08-21T05:18:47;24.70;60.40
55828;DHT22;41758;51.992;5.890;2022-08-21T05:21:13;24.70;60.50
55828;DHT22;41758;51.992;5.890;2022-08-21T05:23:39;24.80;60.70
55828;DHT22;41758;51.992;5.890;2022-08-21T05:26:04;24.80;60.80
55828;DHT22;41758;51.992;5.890;2022-08-21T05:28:31;24.70;61.00
55828;DHT22;41758;51.992;5.890;2022-08-21T05:30:57;24.80;60.90
55828;DHT22;41758;51.992;5.890;2022-08-21T05:33:22;24.80;61.00
55828;DHT22;41758;51.992;5.890;2022-08-21T05:35:52;24.80;61.10
55828;DHT22;41758;51.992;5.890;2022-08-21T05:38:19;24.80;61.00
55828;DHT22;41758;51.992;5.890;2022-08-21T05:40:45;24.80;61.00
55828;DHT22;41758;51.992;5.890;2022-08-21T05:43:11;24.80;61.20
55828;DHT22;41758;51.992;5.890;2022-08-21T05:45:37;24.80;61.30
55828;DHT22;41758;51.992;5.890;2022-08-21T05:50:35;24.80;61.70
55828;DHT22;41758;51.992;5.890;2022-08-21T05:53:02;24.80;62.00
55828;DHT22;41758;51.992;5.890;2022-08-21T05:55:28;24.90;62.10
55828;DHT22;41758;51.992;5.890;2022-08-21T05:57:54;24.90;62.10
55828;DHT22;41758;51.992;5.890;2022-08-21T06:00:23;24.90;62.30
55828;DHT22;41758;51.992;5.890;2022-08-21T06:02:49;24.90;60.70
55828;DHT22;41758;51.992;5.890;2022-08-21T06:05:16;24.90;60.20
55828;DHT22;41758;51.992;5.890;2022-08-21T06:07:42;24.90;60.60
55828;DHT22;41758;51.992;5.890;2022-08-21T06:10:09;24.90;60.90
55828;DHT22;41758;51.992;5.890;2022-08-21T06:12:34;24.90;61.20
55828;DHT22;41758;51.992;5.890;2022-08-21T06:15:00;25.00;61.60
55828;DHT22;41758;51.992;5.890;2022-08-21T06:17:26;25.00;61.20
55828;DHT22;41758;51.992;5.890;2022-08-21T06:19:53;25.00;60.80
55828;DHT22;41758;51.992;5.890;2022-08-21T06:22:22;25.00;61.00
55828;DHT22;41758;51.992;5.890;2022-08-21T06:24:47;25.10;60.90
55828;DHT22;41758;51.992;5.890;2022-08-21T06:27:13;25.00;59.90
55828;DHT22;41758;51.992;5.890;2022-08-21T06:29:40;25.00;60.40
55828;DHT22;41758;51.992;5.890;2022-08-21T06:32:10;25.00;60.10
55828;DHT22;41758;51.992;5.890;2022-08-21T06:34:37;25.10;59.90
55828;DHT22;41758;51.992;5.890;2022-08-21T06:37:03;25.10;60.30
55828;DHT22;41758;51.992;5.890;2022-08-21T06:39:29;25.00;60.30
55828;DHT22;41758;51.992;5.890;2022-08-21T06:41:55;25.10;61.30
55828;DHT22;41758;51.992;5.890;2022-08-21T06:44:27;25.10;60.60
55828;DHT22;41758;51.992;5.890;2022-08-21T06:46:54;25.10;61.70
55828;DHT22;41758;51.992;5.890;2022-08-21T06:49:19;25.10;60.90
55828;DHT22;41758;51.992;5.890;2022-08-21T06:51:45;25.10;60.00
55828;DHT22;41758;51.992;5.890;2022-08-21T06:54:13;25.10;59.80
55828;DHT22;41758;51.992;5.890;2022-08-21T06:56:39;25.10;60.10
55828;DHT22;41758;51.992;5.890;2022-08-21T06:59:05;25.10;61.10
55828;DHT22;41758;51.992;5.890;2022-08-21T07:01:31;25.10;57.60
55828;DHT22;41758;51.992;5.890;2022-08-21T07:03:57;25.00;56.90
55828;DHT22;41758;51.992;5.890;2022-08-21T07:06:26;25.00;58.20
55828;DHT22;41758;51.992;5.890;2022-08-21T07:08:51;25.10;59.80
55828;DHT22;41758;51.992;5.890;2022-08-21T07:11:19;25.00;59.30
55828;DHT22;41758;51.992;5.890;2022-08-21T07:13:45;25.10;60.30
55828;DHT22;41758;51.992;5.890;2022-08-21T07:16:14;25.00;58.10
55828;DHT22;41758;51.992;5.890;2022-08-21T07:18:41;25.00;57.00
55828;DHT22;41758;51.992;5.890;2022-08-21T07:21:08;25.00;57.60
55828;DHT22;41758;51.992;5.890;2022-08-21T07:23:39;25.00;56.40
55828;DHT22;41758;51.992;5.890;2022-08-21T07:26:06;25.00;57.40
55828;DHT22;41758;51.992;5.890;2022-08-21T07:28:32;25.00;59.80
55828;DHT22;41758;51.992;5.890;2022-08-21T07:30:59;25.10;61.00
55828;DHT22;41758;51.992;5.890;2022-08-21T07:33:27;25.10;58.00
55828;DHT22;41758;51.992;5.890;2022-08-21T07:35:56;25.10;57.40
55828;DHT22;41758;51.992;5.890;2022-08-21T07:38:26;25.10;59.20
55828;DHT22;41758;51.992;5.890;2022-08-21T07:40:55;25.10;59.30
55828;DHT22;41758;51.992;5.890;2022-08-21T07:43:22;25.20;58.10
55828;DHT22;41758;51.992;5.890;2022-08-21T07:45:48;25.20;59.00
55828;DHT22;41758;51.992;5.890;2022-08-21T07:48:17;25.20;60.50
55828;DHT22;41758;51.992;5.890;2022-08-21T07:50:43;25.30;60.70
55828;DHT22;41758;51.992;5.890;2022-08-21T07:53:09;25.30;60.90
55828;DHT22;41758;51.992;5.890;2022-08-21T07:55:35;25.30;60.70
55828;DHT22;41758;51.992;5.890;2022-08-21T07:58:03;25.30;58.40
55828;DHT22;41758;51.992;5.890;2022-08-21T08:00:32;25.30;58.90
55828;DHT22;41758;51.992;5.890;2022-08-21T08:02:58;25.40;60.10
55828;DHT22;41758;51.992;5.890;2022-08-21T08:05:27;25.40;60.90
55828;DHT22;41758;51.992;5.890;2022-08-21T08:07:54;25.40;61.30
55828;DHT22;41758;51.992;5.890;2022-08-21T08:10:23;25.50;61.40
55828;DHT22;41758;51.992;5.890;2022-08-21T08:12:51;25.50;61.90
55828;DHT22;41758;51.992;5.890;2022-08-21T08:15:21;25.50;59.90
55828;DHT22;41758;51.992;5.890;2022-08-21T08:17:47;25.60;60.40
55828;DHT22;41758;51.992;5.890;2022-08-21T08:20:15;25.60;61.20
55828;DHT22;41758;51.992;5.890;2022-08-21T08:22:41;25.60;60.20
55828;DHT22;41758;51.992;5.890;2022-08-21T08:25:09;25.60;60.50
55828;DHT22;41758;51.992;5.890;2022-08-21T08:27:36;25.60;61.00
55828;DHT22;41758;51.992;5.890;2022-08-21T08:30:04;25.60;60.90
55828;DHT22;41758;51.992;5.890;2022-08-21T08:32:30;25.70;59.80
55828;DHT22;41758;51.992;5.890;2022-08-21T08:34:56;25.70;59.70
55828;DHT22;41758;51.992;5.890;2022-08-21T08:37:22;25.70;59.60
55828;DHT22;41758;51.992;5.890;2022-08-21T08:39:48;25.70;60.60
55828;DHT22;41758;51.992;5.890;2022-08-21T08:42:18;25.80;61.10
55828;DHT22;41758;51.992;5.890;2022-08-21T08:44:47;25.80;61.20
55828;DHT22;41758;51.992;5.890;2022-08-21T08:47:15;25.80;61.20
55828;DHT22;41758;51.992;5.890;2022-08-21T08:50:05;25.80;61.20
55828;DHT22;41758;51.992;5.890;2022-08-21T08:52:37;25.80;60.20
55828;DHT22;41758;51.992;5.890;2022-08-21T08:55:14;25.80;58.40
55828;DHT22;41758;51.992;5.890;2022-08-21T08:57:45;25.90;59.80
55828;DHT22;41758;51.992;5.890;2022-08-21T09:00:14;25.90;60.00
55828;DHT22;41758;51.992;5.890;2022-08-21T09:02:42;25.90;60.20
55828;DHT22;41758;51.992;5.890;2022-08-21T09:05:25;26.00;60.60
55828;DHT22;41758;51.992;5.890;2022-08-21T09:11:32;26.00;56.50
55828;DHT22;41758;51.992;5.890;2022-08-21T09:17:24;26.00;58.90
55828;DHT22;41758;51.992;5.890;2022-08-21T09:23:00;26.00;58.60
55828;DHT22;41758;51.992;5.890;2022-08-21T09:25:34;26.00;57.20
55828;DHT22;41758;51.992;5.890;2022-08-21T09:28:08;26.10;59.30
55828;DHT22;41758;51.992;5.890;2022-08-21T09:30:39;26.10;60.00
55828;DHT22;41758;51.992;5.890;2022-08-21T09:33:06;26.10;59.40
55828;DHT22;41758;51.992;5.890;2022-08-21T09:35:33;26.20;60.10
55828;DHT22;41758;51.992;5.890;2022-08-21T09:38:03;26.20;60.10
55828;DHT22;41758;51.992;5.890;2022-08-21T09:40:39;26.10;55.90
55828;DHT22;41758;51.992;5.890;2022-08-21T09:45:35;26.20;56.50
55828;DHT22;41758;51.992;5.890;2022-08-21T09:48:17;26.20;57.50
55828;DHT22;41758;51.992;5.890;2022-08-21T09:50:45;26.20;55.80
55828;DHT22;41758;51.992;5.890;2022-08-21T09:53:26;26.20;55.90
55828;DHT22;41758;51.992;5.890;2022-08-21T09:56:02;26.30;56.30
55828;DHT22;41758;51.992;5.890;2022-08-21T09:58:48;26.30;57.50
55828;DHT22;41758;51.992;5.890;2022-08-21T10:01:25;26.40;58.90
55828;DHT22;41758;51.992;5.890;2022-08-21T10:04:10;26.40;59.30
55828;DHT22;41758;51.992;5.890;2022-08-21T10:06:36;26.40;58.80
55828;DHT22;41758;51.992;5.890;2022-08-21T10:09:14;26.40;59.30
55828;DHT22;41758;51.992;5.890;2022-08-21T10:17:43;26.70;57.60
55828;DHT22;41758;51.992;5.890;2022-08-21T10:20:37;26.80;57.70
55828;DHT22;41758;51.992;5.890;2022-08-21T10:28:56;27.00;57.60
55828;DHT22;41758;51.992;5.890;2022-08-21T10:39:28;27.00;56.70
55828;DHT22;41758;51.992;5.890;2022-08-21T10:44:38;27.10;53.70
55828;DHT22;41758;51.992;5.890;2022-08-21T10:56:01;28.10;53.70
55828;DHT22;41758;51.992;5.890;2022-08-21T10:58:48;28.40;52.70
55828;DHT22;41758;51.992;5.890;2022-08-21T11:01:26;28.70;46.10
55828;DHT22;41758;51.992;5.890;2022-08-21T11:06:50;29.30;49.00
55828;DHT22;41758;51.992;5.890;2022-08-21T11:09:21;29.50;50.30
55828;DHT22;41758;51.992;5.890;2022-08-21T11:12:20;29.60;45.10
55828;DHT22;41758;51.992;5.890;2022-08-21T11:15:00;29.70;48.60
55828;DHT22;41758;51.992;5.890;2022-08-21T11:17:51;29.60;48.70
55828;DHT22;41758;51.992;5.890;2022-08-21T11:20:51;29.40;50.20
55828;DHT22;41758;51.992;5.890;2022-08-21T11:23:33;29.30;51.30
55828;DHT22;41758;51.992;5.890;2022-08-21T11:26:08;29.10;50.60
55828;DHT22;41758;51.992;5.890;2022-08-21T11:29:02;28.90;45.90
55828;DHT22;41758;51.992;5.890;2022-08-21T11:31:44;28.90;50.20
55828;DHT22;41758;51.992;5.890;2022-08-21T11:37:11;28.90;51.40
55828;DHT22;41758;51.992;5.890;2022-08-21T11:40:06;28.90;51.30
55828;DHT22;41758;51.992;5.890;2022-08-21T11:45:53;28.90;50.70
55828;DHT22;41758;51.992;5.890;2022-08-21T11:48:34;29.00;51.80
55828;DHT22;41758;51.992;5.890;2022-08-21T11:51:11;29.00;51.00
55828;DHT22;41758;51.992;5.890;2022-08-21T11:54:18;29.00;51.00
55828;DHT22;41758;51.992;5.890;2022-08-21T11:56:47;29.00;51.00
55828;DHT22;41758;51.992;5.890;2022-08-21T11:59:40;29.10;50.30
55828;DHT22;41758;51.992;5.890;2022-08-21T12:02:22;29.10;47.40
55828;DHT22;41758;51.992;5.890;2022-08-21T12:04:53;29.10;50.60
55828;DHT22;41758;51.992;5.890;2022-08-21T12:07:40;29.20;49.50
55828;DHT22;41758;51.992;5.890;2022-08-21T12:10:12;29.30;49.20
55828;DHT22;41758;51.992;5.890;2022-08-21T12:12:41;29.30;49.10
55828;DHT22;41758;51.992;5.890;2022-08-21T12:15:16;29.40;49.90
55828;DHT22;41758;51.992;5.890;2022-08-21T12:17:54;29.70;50.00
55828;DHT22;41758;51.992;5.890;2022-08-21T12:23:16;30.40;49.50
55828;DHT22;41758;51.992;5.890;2022-08-21T12:28:26;31.30;43.10
55828;DHT22;41758;51.992;5.890;2022-08-21T12:30:53;31.80;44.70
55828;DHT22;41758;51.992;5.890;2022-08-21T12:35:48;32.60;37.90
55828;DHT22;41758;51.992;5.890;2022-08-21T12:38:27;33.00;42.50
55828;DHT22;41758;51.992;5.890;2022-08-21T12:41:16;33.30;42.70
55828;DHT22;41758;51.992;5.890;2022-08-21T12:43:52;33.60;40.80
55828;DHT22;41758;51.992;5.890;2022-08-21T12:46:35;33.90;39.10
55828;DHT22;41758;51.992;5.890;2022-08-21T12:51:55;34.40;36.20
55828;DHT22;41758;51.992;5.890;2022-08-21T12:54:24;34.50;34.70
55828;DHT22;41758;51.992;5.890;2022-08-21T12:57:01;34.70;37.60
55828;DHT22;41758;51.992;5.890;2022-08-21T12:59:29;34.80;37.90
55828;DHT22;41758;51.992;5.890;2022-08-21T13:01:56;34.90;37.60
55828;DHT22;41758;51.992;5.890;2022-08-21T13:04:39;35.00;36.10
55828;DHT22;41758;51.992;5.890;2022-08-21T13:07:12;35.20;38.30
55828;DHT22;41758;51.992;5.890;2022-08-21T13:12:10;35.60;38.40
55828;DHT22;41758;51.992;5.890;2022-08-21T13:14:41;35.60;38.80
55828;DHT22;41758;51.992;5.890;2022-08-21T13:17:08;35.30;36.70
55828;DHT22;41758;51.992;5.890;2022-08-21T13:19:35;34.80;37.30
55828;DHT22;41758;51.992;5.890;2022-08-21T13:22:01;34.30;37.90
55828;DHT22;41758;51.992;5.890;2022-08-21T13:24:33;33.70;39.70
55828;DHT22;41758;51.992;5.890;2022-08-21T13:27:00;33.30;41.40
55828;DHT22;41758;51.992;5.890;2022-08-21T13:29:34;33.00;42.10
55828;DHT22;41758;51.992;5.890;2022-08-21T13:32:04;32.60;40.30
55828;DHT22;41758;51.992;5.890;2022-08-21T13:34:37;32.20;35.70
55828;DHT22;41758;51.992;5.890;2022-08-21T13:37:06;31.80;40.00
55828;DHT22;41758;51.992;5.890;2022-08-21T13:39:33;31.50;43.20
55828;DHT22;41758;51.992;5.890;2022-08-21T13:42:02;31.30;43.90
55828;DHT22;41758;51.992;5.890;2022-08-21T13:44:40;31.00;45.30
55828;DHT22;41758;51.992;5.890;2022-08-21T13:47:07;30.80;44.30
55828;DHT22;41758;51.992;5.890;2022-08-21T13:49:40;30.60;43.70
55828;DHT22;41758;51.992;5.890;2022-08-21T13:52:17;30.40;44.50
55828;DHT22;41758;51.992;5.890;2022-08-21T13:54:51;30.20;42.10
55828;DHT22;41758;51.992;5.890;2022-08-21T13:57:29;30.10;45.00
55828;DHT22;41758;51.992;5.890;2022-08-21T14:02:46;29.90;45.40
55828;DHT22;41758;51.992;5.890;2022-08-21T14:05:22;29.80;43.40
55828;DHT22;41758;51.992;5.890;2022-08-21T14:07:59;29.80;46.30
55828;DHT22;41758;51.992;5.890;2022-08-21T14:10:27;29.60;45.60
55828;DHT22;41758;51.992;5.890;2022-08-21T14:13:05;29.60;47.00
55828;DHT22;41758;51.992;5.890;2022-08-21T14:15:33;29.50;45.50
55828;DHT22;41758;51.992;5.890;2022-08-21T14:18:09;29.40;46.10
55828;DHT22;41758;51.992;5.890;2022-08-21T14:20:57;29.40;42.30
55828;DHT22;41758;51.992;5.890;2022-08-21T14:23:27;29.30;47.20
55828;DHT22;41758;51.992;5.890;2022-08-21T14:25:53;29.30;46.90
55828;DHT22;41758;51.992;5.890;2022-08-21T14:28:33;29.30;45.90
55828;DHT22;41758;51.992;5.890;2022-08-21T14:31:20;29.30;47.70
55828;DHT22;41758;51.992;5.890;2022-08-21T14:33:49;29.10;41.40
55828;DHT22;41758;51.992;5.890;2022-08-21T14:36:15;29.10;46.40
55828;DHT22;41758;51.992;5.890;2022-08-21T14:38:41;29.10;47.30
55828;DHT22;41758;51.992;5.890;2022-08-21T14:41:22;29.00;45.00
55828;DHT22;41758;51.992;5.890;2022-08-21T14:43:48;29.10;49.60
55828;DHT22;41758;51.992;5.890;2022-08-21T14:46:21;29.10;50.30
55828;DHT22;41758;51.992;5.890;2022-08-21T14:48:47;29.10;47.20
55828;DHT22;41758;51.992;5.890;2022-08-21T14:51:14;29.00;47.70
55828;DHT22;41758;51.992;5.890;2022-08-21T14:53:40;29.00;46.40
55828;DHT22;41758;51.992;5.890;2022-08-21T14:56:05;29.00;46.10
55828;DHT22;41758;51.992;5.890;2022-08-21T14:58:37;29.00;49.90
55828;DHT22;41758;51.992;5.890;2022-08-21T15:01:05;29.00;44.60
55828;DHT22;41758;51.992;5.890;2022-08-21T15:03:31;29.00;46.20
55828;DHT22;41758;51.992;5.890;2022-08-21T15:05:57;28.90;45.20
55828;DHT22;41758;51.992;5.890;2022-08-21T15:08:23;29.00;49.10
55828;DHT22;41758;51.992;5.890;2022-08-21T15:10:51;29.00;48.10
55828;DHT22;41758;51.992;5.890;2022-08-21T15:13:17;29.00;49.00
55828;DHT22;41758;51.992;5.890;2022-08-21T15:15:44;29.00;48.70
55828;DHT22;41758;51.992;5.890;2022-08-21T15:18:11;29.00;46.40
55828;DHT22;41758;51.992;5.890;2022-08-21T15:20:37;29.00;48.50
55828;DHT22;41758;51.992;5.890;2022-08-21T15:23:04;29.00;48.70
55828;DHT22;41758;51.992;5.890;2022-08-21T15:25:30;29.00;46.80
55828;DHT22;41758;51.992;5.890;2022-08-21T15:27:57;29.00;42.50
55828;DHT22;41758;51.992;5.890;2022-08-21T15:30:47;28.90;46.00
55828;DHT22;41758;51.992;5.890;2022-08-21T15:33:13;28.90;43.80
55828;DHT22;41758;51.992;5.890;2022-08-21T15:35:43;28.90;47.80
55828;DHT22;41758;51.992;5.890;2022-08-21T15:38:09;28.80;45.00
55828;DHT22;41758;51.992;5.890;2022-08-21T15:40:35;28.80;45.10
55828;DHT22;41758;51.992;5.890;2022-08-21T15:43:03;28.80;47.10
55828;DHT22;41758;51.992;5.890;2022-08-21T15:45:29;28.80;49.50
55828;DHT22;41758;51.992;5.890;2022-08-21T15:47:57;28.80;49.00
55828;DHT22;41758;51.992;5.890;2022-08-21T15:50:23;28.80;48.70
55828;DHT22;41758;51.992;5.890;2022-08-21T15:52:49;28.80;49.10
55828;DHT22;41758;51.992;5.890;2022-08-21T15:55:15;28.80;49.70
55828;DHT22;41758;51.992;5.890;2022-08-21T15:57:49;28.80;48.90
55828;DHT22;41758;51.992;5.890;2022-08-21T16:00:22;28.70;47.30
55828;DHT22;41758;51.992;5.890;2022-08-21T16:02:52;28.70;49.50
55828;DHT22;41758;51.992;5.890;2022-08-21T16:05:18;28.70;49.50
55828;DHT22;41758;51.992;5.890;2022-08-21T16:07:46;28.70;47.90
55828;DHT22;41758;51.992;5.890;2022-08-21T16:10:13;28.60;48.90
55828;DHT22;41758;51.992;5.890;2022-08-21T16:12:46;28.60;49.70
55828;DHT22;41758;51.992;5.890;2022-08-21T16:15:13;28.60;49.70
55828;DHT22;41758;51.992;5.890;2022-08-21T16:17:42;28.60;50.30
55828;DHT22;41758;51.992;5.890;2022-08-21T16:20:13;28.60;48.90
55828;DHT22;41758;51.992;5.890;2022-08-21T16:22:39;28.60;50.30
55828;DHT22;41758;51.992;5.890;2022-08-21T16:25:06;28.50;49.80
55828;DHT22;41758;51.992;5.890;2022-08-21T16:27:32;28.50;50.50
55828;DHT22;41758;51.992;5.890;2022-08-21T16:29:59;28.50;49.80
55828;DHT22;41758;51.992;5.890;2022-08-21T16:32:25;28.50;50.30
55828;DHT22;41758;51.992;5.890;2022-08-21T16:34:51;28.50;51.20
55828;DHT22;41758;51.992;5.890;2022-08-21T16:37:17;28.40;50.20
55828;DHT22;41758;51.992;5.890;2022-08-21T16:39:43;28.40;50.80
55828;DHT22;41758;51.992;5.890;2022-08-21T16:42:12;28.40;50.80
55828;DHT22;41758;51.992;5.890;2022-08-21T16:44:40;28.40;49.50
55828;DHT22;41758;51.992;5.890;2022-08-21T16:47:06;28.40;50.30
55828;DHT22;41758;51.992;5.890;2022-08-21T16:49:33;28.40;48.90
55828;DHT22;41758;51.992;5.890;2022-08-21T16:51:58;28.30;50.70
55828;DHT22;41758;51.992;5.890;2022-08-21T16:54:25;28.30;51.30
55828;DHT22;41758;51.992;5.890;2022-08-21T16:56:51;28.30;51.10